createdAt,value
2022-08-26T00:02:38.531Z,98189.84
2022-08-26T00:05:25.591Z,98193.22
2022-08-26T00:08:13.604Z,98075.91
2022-08-26T00:10:59.877Z,98063.91
2022-08-26T00:13:47.861Z,98195.75
2022-08-26T00:16:34.930Z,98184.47
2022-08-26T00:19:21.178Z,98206.25
2022-08-26T00:22:07.091Z,98176.00
2022-08-26T00:24:52.690Z,98019.00
2022-08-26T00:27:38.408Z,98145.50
2022-08-26T00:30:29.054Z,98191.34
2022-08-26T00:33:17.229Z,98023.97
2022-08-26T00:36:05.177Z,98135.03
2022-08-26T00:38:50.944Z,98021.56
2022-08-26T00:41:41.273Z,98022.09
2022-08-26T00:44:26.960Z,98191.66
2022-08-26T00:47:32.049Z,98132.34
2022-08-26T00:50:23.081Z,98075.84
2022-08-26T00:53:24.005Z,98189.03
2022-08-26T00:56:36.242Z,98183.03
2022-08-26T00:59:22.649Z,98140.25
2022-08-26T01:02:08.597Z,98052.47
2022-08-26T01:05:07.679Z,98008.72
2022-08-26T01:07:53.265Z,98157.22
2022-08-26T01:10:38.608Z,98040.84
2022-08-26T01:13:25.279Z,98067.81
2022-08-26T01:16:14.370Z,98028.84
2022-08-26T01:19:17.188Z,98089.56
2022-08-26T01:22:09.959Z,98199.97
2022-08-26T01:24:58.116Z,98040.22
2022-08-26T01:27:43.848Z,98150.13
2022-08-26T01:30:31.270Z,98153.97
2022-08-26T01:33:20.993Z,98028.28
2022-08-26T01:36:07.778Z,98102.97
2022-08-26T01:38:54.091Z,98150.03
2022-08-26T01:41:40.712Z,98018.88
2022-08-26T01:44:35.490Z,98180.31
2022-08-26T01:47:24.272Z,98189.63
2022-08-26T01:50:20.081Z,98216.31
2022-08-26T01:53:18.522Z,98013.03
2022-08-26T01:56:10.314Z,98146.72
2022-08-26T01:58:59.709Z,98145.56
2022-08-26T02:01:46.127Z,98178.56
2022-08-26T02:04:36.618Z,98042.81
2022-08-26T02:07:22.305Z,98010.84
2022-08-26T02:10:12.396Z,98064.00
2022-08-26T02:12:59.778Z,98174.91
2022-08-26T02:15:45.672Z,98143.34
2022-08-26T02:18:35.065Z,98048.84
2022-08-26T02:21:21.526Z,98200.53
2022-08-26T02:24:15.414Z,98185.47
2022-08-26T02:27:01.437Z,98207.34
2022-08-26T02:29:53.586Z,98173.47
2022-08-26T02:32:40.215Z,98112.16
2022-08-26T02:35:27.020Z,98113.38
2022-08-26T02:38:12.458Z,98043.72
2022-08-26T02:40:57.710Z,98119.94
2022-08-26T02:43:43.877Z,98015.81
2022-08-26T02:46:30.241Z,98173.06
2022-08-26T02:49:16.996Z,98167.22
2022-08-26T02:52:02.989Z,98194.94
2022-08-26T02:54:49.454Z,98181.25
2022-08-26T02:57:35.001Z,98045.03
2022-08-26T03:00:20.529Z,98048.69
2022-08-26T03:03:06.178Z,98135.41
2022-08-26T03:05:52.869Z,98104.34
2022-08-26T03:08:40.359Z,98187.47
2022-08-26T03:11:28.570Z,98152.63
2022-08-26T03:14:17.484Z,98106.13
2022-08-26T03:17:03.947Z,98185.81
2022-08-26T03:19:54.236Z,98138.19
2022-08-26T03:22:43.126Z,98188.72
2022-08-26T03:25:28.778Z,98023.16
2022-08-26T03:28:14.212Z,98181.00
2022-08-26T03:31:03.611Z,98023.72
2022-08-26T03:33:48.844Z,98038.88
2022-08-26T03:36:37.178Z,98190.16
2022-08-26T03:39:22.577Z,98022.94
2022-08-26T03:42:07.945Z,98154.00
2022-08-26T03:44:53.219Z,98018.78
2022-08-26T03:47:40.299Z,98218.00
2022-08-26T03:50:26.750Z,98051.13
2022-08-26T03:53:13.241Z,97993.94
2022-08-26T03:55:58.872Z,98190.16
2022-08-26T03:58:44.845Z,98104.81
2022-08-26T04:01:32.059Z,98152.97
2022-08-26T04:04:18.562Z,98193.78
2022-08-26T04:07:08.648Z,98161.44
2022-08-26T04:09:55.860Z,98150.84
2022-08-26T04:12:41.435Z,98004.44
2022-08-26T04:15:27.490Z,98128.72
2022-08-26T04:18:12.735Z,98142.59
2022-08-26T04:20:58.134Z,98001.94
2022-08-26T04:23:47.660Z,98105.25
2022-08-26T04:26:39.489Z,98167.44
2022-08-26T04:29:28.278Z,98118.00
2022-08-26T04:32:13.944Z,98208.69
2022-08-26T04:34:59.378Z,98072.72
2022-08-26T04:37:47.888Z,98154.91
2022-08-26T04:40:33.328Z,98148.03
2022-08-26T04:43:18.619Z,98013.78
2022-08-26T04:46:05.855Z,98054.84
2022-08-26T04:48:53.221Z,98158.59
2022-08-26T04:51:39.802Z,98190.13
2022-08-26T04:54:26.162Z,98042.00
2022-08-26T04:57:11.997Z,98046.00
2022-08-26T04:59:58.042Z,98175.59
2022-08-26T05:02:43.862Z,98176.63
2022-08-26T05:05:29.229Z,98031.56
2022-08-26T05:08:16.402Z,98206.06
2022-08-26T05:11:05.059Z,98199.44
2022-08-26T05:13:51.598Z,98199.50
2022-08-26T05:16:37.824Z,98190.78
2022-08-26T05:19:27.948Z,98047.72
2022-08-26T05:22:14.033Z,98144.69
2022-08-26T05:25:00.837Z,98196.06
2022-08-26T05:27:47.082Z,98191.47
2022-08-26T05:30:33.256Z,98188.13
2022-08-26T05:33:20.293Z,98190.34
2022-08-26T05:36:11.494Z,98066.41
2022-08-26T05:38:57.925Z,98189.50
2022-08-26T05:41:44.733Z,98188.94
2022-08-26T05:44:30.459Z,98189.72
2022-08-26T05:47:36.121Z,98181.34
2022-08-26T05:50:23.214Z,98173.47
2022-08-26T05:53:11.120Z,98184.56
2022-08-26T05:55:58.145Z,98046.47
2022-08-26T05:58:43.745Z,98158.13
2022-08-26T06:01:35.465Z,98117.28
2022-08-26T06:04:21.527Z,98121.34
2022-08-26T06:07:07.409Z,98033.91
2022-08-26T06:10:15.363Z,98064.28
2022-08-26T06:13:11.872Z,98184.91
2022-08-26T06:15:59.316Z,98175.91
2022-08-26T06:18:47.238Z,98147.34
2022-08-26T06:21:35.495Z,98168.19
2022-08-26T06:24:41.110Z,98179.38
2022-08-26T06:27:30.662Z,98180.41
2022-08-26T06:30:18.374Z,98187.97
2022-08-26T06:33:04.468Z,98082.63
2022-08-26T06:35:51.298Z,98175.16
2022-08-26T06:38:37.298Z,98160.97
2022-08-26T06:41:23.685Z,98166.31
2022-08-26T06:44:18.119Z,98168.00
2022-08-26T06:47:04.636Z,98151.66
2022-08-26T06:49:50.384Z,98165.88
2022-08-26T06:52:36.927Z,98181.84
2022-08-26T06:55:22.280Z,98068.69
2022-08-26T06:58:14.298Z,98143.56
2022-08-26T07:01:03.690Z,98125.19
2022-08-26T07:03:59.224Z,98168.38
2022-08-26T07:06:50.267Z,98164.22
2022-08-26T07:09:39.092Z,98062.41
2022-08-26T07:12:26.603Z,98166.72
2022-08-26T07:15:12.107Z,98169.00
2022-08-26T07:17:58.290Z,98141.41
2022-08-26T07:20:43.816Z,98157.97
2022-08-26T07:23:29.846Z,98132.16
2022-08-26T07:26:19.806Z,98151.03
2022-08-26T07:29:06.908Z,98145.47
2022-08-26T07:31:54.708Z,98101.13
2022-08-26T07:34:43.037Z,98029.34
2022-08-26T07:37:29.188Z,98106.84
2022-08-26T07:40:21.902Z,98140.72
2022-08-26T07:43:09.748Z,98062.66
2022-08-26T07:45:56.211Z,98100.13
2022-08-26T07:48:45.940Z,98161.78
2022-08-26T07:51:32.364Z,98019.97
2022-08-26T07:54:18.824Z,98149.75
2022-08-26T07:57:08.422Z,98146.19
2022-08-26T07:59:55.483Z,98127.56
2022-08-26T08:02:40.773Z,98134.97
2022-08-26T08:05:33.531Z,98126.38
2022-08-26T08:08:27.532Z,98081.41
2022-08-26T08:11:14.834Z,98026.31
2022-08-26T08:14:01.075Z,98123.06
2022-08-26T08:16:47.386Z,98129.56
2022-08-26T08:19:39.164Z,98072.38
2022-08-26T08:22:25.036Z,98121.13
2022-08-26T08:25:12.998Z,98036.13
2022-08-26T08:27:58.656Z,98111.38
2022-08-26T08:30:44.300Z,98009.78
2022-08-26T08:33:30.295Z,98085.63
2022-08-26T08:36:20.392Z,98110.03
2022-08-26T08:39:07.117Z,98110.78
2022-08-26T08:42:11.431Z,98115.06
2022-08-26T08:44:59.559Z,98101.53
2022-08-26T08:48:01.973Z,98100.09
2022-08-26T08:50:50.893Z,98091.50
2022-08-26T08:53:43.184Z,98102.97
2022-08-26T08:56:42.881Z,98095.09
2022-08-26T08:59:34.201Z,98087.31
2022-08-26T09:02:20.223Z,98110.19
2022-08-26T09:05:23.528Z,98095.94
2022-08-26T09:08:23.246Z,98091.66
2022-08-26T09:11:09.878Z,97980.91
2022-08-26T09:13:56.339Z,98025.97
2022-08-26T09:17:00.949Z,97951.66
2022-08-26T09:20:02.119Z,98080.31
2022-08-26T09:22:48.163Z,98060.31
2022-08-26T09:29:54.386Z,98017.41
2022-08-26T09:33:22.089Z,98071.78
2022-08-26T09:36:39.173Z,98073.97
2022-08-26T09:39:48.694Z,98063.25
2022-08-26T09:42:34.677Z,98073.28
2022-08-26T09:45:28.750Z,98056.13
2022-08-26T09:48:36.600Z,98058.31
2022-08-26T09:51:26.658Z,98066.16
2022-08-26T09:54:30.193Z,98063.31
2022-08-26T09:57:25.335Z,98061.19
2022-08-26T10:00:33.536Z,98031.88
2022-08-26T10:03:34.800Z,98026.22
2022-08-26T10:06:25.250Z,97937.59
2022-08-26T10:09:17.253Z,97962.63
2022-08-26T10:12:13.276Z,98068.31
2022-08-26T10:15:03.607Z,97937.63
2022-08-26T10:18:14.076Z,97840.50
2022-08-26T10:21:13.442Z,98023.34
2022-08-26T10:24:03.659Z,98056.94
2022-08-26T10:27:05.742Z,98053.34
2022-08-26T10:30:02.794Z,98042.63
2022-08-26T10:32:55.101Z,98047.66
2022-08-26T10:35:50.334Z,97932.00
2022-08-26T10:38:40.298Z,98034.09
2022-08-26T10:41:34.118Z,98007.69
2022-08-26T10:44:21.682Z,97934.16
2022-08-26T10:47:19.452Z,97983.41
2022-08-26T10:50:06.013Z,97926.31
2022-08-26T10:53:03.954Z,98026.28
2022-08-26T10:56:06.103Z,98021.97
2022-08-26T10:59:23.046Z,98034.09
2022-08-26T11:02:24.694Z,97994.84
2022-08-26T11:05:21.968Z,97987.72
2022-08-26T11:08:34.439Z,98010.50
2022-08-26T11:11:48.402Z,98014.78
2022-08-26T11:14:53.553Z,98009.81
2022-08-26T11:17:44.897Z,98009.09
2022-08-26T11:20:31.220Z,98021.94
2022-08-26T11:23:24.151Z,97996.94
2022-08-26T11:26:11.569Z,98001.94
2022-08-26T11:29:13.412Z,97994.78
2022-08-26T11:32:02.503Z,97997.63
2022-08-26T11:35:04.142Z,97985.50
2022-08-26T11:37:57.634Z,97907.78
2022-08-26T11:40:44.285Z,97862.19
2022-08-26T11:43:31.643Z,97959.09
2022-08-26T11:46:25.513Z,97884.94
2022-08-26T11:49:13.033Z,97851.44
2022-08-26T11:52:12.635Z,97965.47
2022-08-26T11:55:11.767Z,97978.31
2022-08-26T11:58:01.324Z,97923.41
2022-08-26T12:00:54.488Z,97969.03
2022-08-26T12:03:49.668Z,97967.63
2022-08-26T12:06:45.305Z,97967.63
2022-08-26T12:09:40.513Z,97964.75
2022-08-26T12:12:42.599Z,97960.47
2022-08-26T12:15:31.555Z,97974.78
2022-08-26T12:18:29.379Z,97969.06
2022-08-26T12:21:34.754Z,97967.63
2022-08-26T12:24:45.007Z,97969.06
2022-08-26T12:27:41.510Z,97902.03
2022-08-26T12:30:33.543Z,97951.91
2022-08-26T12:33:27.679Z,97956.19
2022-08-26T12:36:28.697Z,97949.03
2022-08-26T12:39:27.704Z,97944.72
2022-08-26T12:42:18.416Z,97945.41
2022-08-26T12:45:12.638Z,97940.38
2022-08-26T12:48:04.648Z,97936.09
2022-08-26T12:50:52.515Z,97937.53
2022-08-26T12:53:43.598Z,97944.75
2022-08-26T12:56:40.859Z,97928.97
2022-08-26T12:59:29.884Z,97931.06
2022-08-26T13:02:37.548Z,97924.66
2022-08-26T13:05:38.882Z,97931.78
2022-08-26T13:08:29.374Z,97920.34
2022-08-26T13:11:29.597Z,97921.78
2022-08-26T13:14:23.998Z,97921.75
2022-08-26T13:17:12.759Z,97886.16
2022-08-26T13:20:03.766Z,97916.72
2022-08-26T13:22:58.908Z,97915.97
2022-08-26T13:25:50.200Z,97900.97
2022-08-26T13:28:45.570Z,97917.38
2022-08-26T13:31:48.498Z,97913.09
2022-08-26T13:34:39.608Z,97917.44
2022-08-26T13:37:34.598Z,97782.16
2022-08-26T13:40:22.940Z,97918.91
2022-08-26T13:43:14.569Z,97911.06
2022-08-26T13:46:04.012Z,97918.94
2022-08-26T13:48:51.798Z,97916.06
2022-08-26T13:51:38.600Z,97921.09
2022-08-26T13:54:25.042Z,97787.84
2022-08-26T13:57:19.426Z,97910.34
2022-08-26T14:00:10.880Z,97902.53
2022-08-26T14:02:59.916Z,97908.94
2022-08-26T14:05:49.245Z,97907.53
2022-08-26T14:08:37.573Z,97904.69
2022-08-26T14:11:46.736Z,97906.84
2022-08-26T14:15:02.716Z,97904.69
2022-08-26T14:18:07.753Z,97898.94
2022-08-26T14:20:59.078Z,97897.56
2022-08-26T14:24:04.044Z,97900.41
2022-08-26T14:26:52.961Z,97893.28
2022-08-26T14:29:41.582Z,97897.63
2022-08-26T14:32:29.713Z,97901.91
2022-08-26T14:35:21.737Z,97884.78
2022-08-26T14:38:07.672Z,97842.06
2022-08-26T14:40:53.579Z,97896.22
2022-08-26T14:43:58.127Z,97894.75
2022-08-26T14:46:48.238Z,97887.63
2022-08-26T14:49:35.257Z,97897.63
2022-08-26T14:52:21.962Z,97879.06
2022-08-26T14:55:09.444Z,97884.78
2022-08-26T14:58:08.437Z,97893.38
2022-08-26T15:00:58.049Z,97891.94
2022-08-26T15:03:47.719Z,97894.09
2022-08-26T15:06:37.311Z,97833.53
2022-08-26T15:09:29.730Z,97884.84
2022-08-26T15:12:17.016Z,97889.84
2022-08-26T15:15:03.905Z,97880.56
2022-08-26T15:17:50.076Z,97877.72
2022-08-26T15:20:36.737Z,97882.75
2022-08-26T15:23:24.349Z,97869.25
2022-08-26T15:26:16.409Z,97882.06
2022-08-26T15:29:20.720Z,97879.97
2022-08-26T15:32:07.233Z,97872.09
2022-08-26T15:35:08.884Z,97877.78
2022-08-26T15:38:05.886Z,97863.56
2022-08-26T15:41:01.006Z,97869.28
2022-08-26T15:43:49.501Z,97822.25
2022-08-26T15:46:36.363Z,97754.53
2022-08-26T15:49:27.384Z,97873.56
2022-08-26T15:52:17.750Z,97874.28
2022-08-26T15:55:08.689Z,97863.59
2022-08-26T15:57:56.546Z,97866.44
2022-08-26T16:00:42.747Z,97815.13
2022-08-26T16:03:28.477Z,97796.59
2022-08-26T16:06:15.399Z,97875.69
2022-08-26T16:09:01.902Z,97844.31
2022-08-26T16:11:47.619Z,97847.88
2022-08-26T16:14:33.480Z,97847.84
2022-08-26T16:17:19.288Z,97849.94
2022-08-26T16:20:05.412Z,97747.13
2022-08-26T16:22:51.312Z,97861.97
2022-08-26T16:25:38.666Z,97833.31
2022-08-26T16:28:25.052Z,97866.91
2022-08-26T16:31:12.766Z,97788.28
2022-08-26T16:33:58.150Z,97871.72
2022-08-26T16:36:43.829Z,97733.13
2022-08-26T16:39:29.714Z,97773.09
2022-08-26T16:42:15.386Z,97855.94
2022-08-26T16:45:01.561Z,97773.63
2022-08-26T16:47:50.569Z,97811.41
2022-08-26T16:50:38.391Z,97846.91
2022-08-26T16:53:24.009Z,97853.38
2022-08-26T16:56:33.394Z,97870.44
2022-08-26T16:59:21.823Z,97862.53
2022-08-26T17:02:09.409Z,97869.53
2022-08-26T17:04:57.906Z,97866.53
2022-08-26T17:07:59.282Z,97872.81
2022-08-26T17:10:55.001Z,97849.81
2022-08-26T17:13:41.736Z,97853.19
2022-08-26T17:16:29.331Z,97865.78
2022-08-26T17:19:17.634Z,97871.16
2022-08-26T17:22:05.644Z,97870.97
2022-08-26T17:24:53.107Z,97763.94
2022-08-26T17:27:40.699Z,97838.94
2022-08-26T17:30:26.129Z,97868.69
2022-08-26T17:33:14.041Z,97870.06
2022-08-26T17:36:04.411Z,97868.34
2022-08-26T17:38:50.155Z,97734.63
2022-08-26T17:41:40.189Z,97547.16
2022-08-26T17:44:26.669Z,97733.19
2022-08-26T17:47:12.676Z,97871.94
2022-08-26T17:49:58.448Z,97819.31
2022-08-26T17:52:45.843Z,97852.06
2022-08-26T17:55:31.774Z,97882.13
2022-08-26T17:58:23.363Z,97888.94
2022-08-26T18:01:09.895Z,97871.53
2022-08-26T18:04:00.292Z,97905.38
2022-08-26T18:06:49.091Z,97886.78
2022-08-26T18:09:35.270Z,97739.81
2022-08-26T18:12:20.964Z,97850.16
2022-08-26T18:15:13.126Z,97884.66
2022-08-26T18:17:58.877Z,97847.31
2022-08-26T18:20:45.422Z,97870.28
2022-08-26T18:23:31.496Z,97883.09
2022-08-26T18:26:27.110Z,97875.59
2022-08-26T18:29:13.094Z,97881.00
2022-08-26T18:31:58.813Z,97855.97
2022-08-26T18:34:45.575Z,97877.69
2022-08-26T18:37:31.815Z,97854.03
2022-08-26T18:40:17.789Z,97840.38
2022-08-26T18:43:04.671Z,97842.56
2022-08-26T18:46:02.262Z,97866.19
2022-08-26T18:48:51.065Z,97875.81
2022-08-26T18:51:38.056Z,97848.34
2022-08-26T18:54:23.413Z,97865.50
2022-08-26T18:57:09.019Z,97792.19
2022-08-26T18:59:55.116Z,97844.19
2022-08-26T19:02:41.109Z,97866.19
2022-08-26T19:05:29.109Z,97832.50
2022-08-26T19:08:14.833Z,97828.78
2022-08-26T19:11:00.585Z,97843.06
2022-08-26T19:13:46.454Z,97877.19
2022-08-26T19:16:32.455Z,97861.88
2022-08-26T19:19:20.662Z,97721.84
2022-08-26T19:22:06.200Z,97836.53
2022-08-26T19:24:53.658Z,97837.59
2022-08-26T19:27:39.976Z,97837.16
2022-08-26T19:30:26.242Z,97866.63
2022-08-26T19:33:15.701Z,97866.91
2022-08-26T19:36:04.791Z,97869.63
2022-08-26T19:38:53.521Z,97867.47
2022-08-26T19:41:39.921Z,97682.41
2022-08-26T19:44:44.216Z,97717.88
2022-08-26T19:47:29.927Z,97830.00
2022-08-26T19:50:17.080Z,97838.44
2022-08-26T19:53:05.258Z,97840.72
2022-08-26T19:55:51.581Z,97861.75
2022-08-26T19:58:37.704Z,97854.53
2022-08-26T20:01:23.948Z,97801.66
2022-08-26T20:04:09.481Z,97810.91
2022-08-26T20:06:57.679Z,97829.38
2022-08-26T20:09:48.067Z,97874.63
2022-08-26T20:12:35.594Z,97868.25
2022-08-26T20:15:23.119Z,97870.38
2022-08-26T20:18:28.554Z,97723.94
2022-08-26T20:21:27.422Z,97729.28
2022-08-26T20:24:16.865Z,97834.25
2022-08-26T20:27:07.443Z,97859.41
2022-08-26T20:29:55.609Z,97716.53
2022-08-26T20:32:41.861Z,97824.22
2022-08-26T20:35:27.471Z,97860.69
2022-08-26T20:38:14.674Z,97869.13
2022-08-26T20:41:01.815Z,97856.41
2022-08-26T20:43:47.878Z,97744.00
2022-08-26T20:46:34.943Z,97870.69
2022-08-26T20:49:21.498Z,97834.84
2022-08-26T20:52:07.473Z,97882.34
2022-08-26T20:54:53.788Z,97725.03
2022-08-26T20:57:43.338Z,97880.56
2022-08-26T21:00:29.640Z,97878.41
2022-08-26T21:03:15.490Z,97878.22
2022-08-26T21:06:01.372Z,97724.53
2022-08-26T21:08:48.477Z,97740.25
2022-08-26T21:11:35.325Z,97841.31
2022-08-26T21:14:25.837Z,97872.00
2022-08-26T21:17:11.727Z,97859.59
2022-08-26T21:19:57.284Z,97725.72
2022-08-26T21:22:43.627Z,97889.59
2022-08-26T21:25:29.187Z,97887.94
2022-08-26T21:28:14.752Z,97878.56
2022-08-26T21:31:04.304Z,97890.34
2022-08-26T21:33:51.201Z,97838.91
2022-08-26T21:36:37.450Z,97873.88
2022-08-26T21:39:23.352Z,97875.97
2022-08-26T21:42:09.090Z,97876.03
2022-08-26T21:44:54.620Z,97806.97
2022-08-26T21:47:40.718Z,97842.88
2022-08-26T21:50:26.266Z,97852.47
2022-08-26T21:53:15.610Z,97700.34
2022-08-26T21:56:13.844Z,97737.75
2022-08-26T21:59:00.903Z,97859.66
2022-08-26T22:01:47.760Z,97867.38
2022-08-26T22:04:36.418Z,97870.06
2022-08-26T22:07:21.847Z,97712.91
2022-08-26T22:10:08.109Z,97786.38
2022-08-26T22:12:54.112Z,97877.06
2022-08-26T22:15:40.978Z,97869.16
2022-08-26T22:18:28.427Z,97712.59
2022-08-26T22:21:27.128Z,97700.91
2022-08-26T22:24:12.597Z,97804.28
2022-08-26T22:26:58.029Z,97726.81
2022-08-26T22:29:43.848Z,97783.94
2022-08-26T22:32:29.452Z,97835.88
2022-08-26T22:35:29.124Z,97723.28
2022-08-26T22:38:15.411Z,97874.78
2022-08-26T22:41:02.586Z,97855.97
2022-08-26T22:43:50.055Z,97764.00
2022-08-26T22:46:36.909Z,97865.69
2022-08-26T22:49:23.513Z,97825.31
2022-08-26T22:52:09.433Z,97859.94
2022-08-26T22:54:54.886Z,97862.41
2022-08-26T22:57:40.587Z,97818.72
2022-08-26T23:00:32.057Z,97874.63
2022-08-26T23:03:18.092Z,97720.53
2022-08-26T23:06:10.116Z,97868.22
2022-08-26T23:08:55.872Z,97720.06
2022-08-26T23:11:43.044Z,97866.38
2022-08-26T23:14:28.751Z,97870.97
2022-08-26T23:17:14.945Z,97714.94
2022-08-26T23:20:00.269Z,97870.97
2022-08-26T23:22:46.217Z,97697.56
2022-08-26T23:25:32.549Z,97894.16
2022-08-26T23:28:20.272Z,97875.31
2022-08-26T23:31:06.660Z,97875.34
2022-08-26T23:34:11.061Z,97748.59
2022-08-26T23:36:58.992Z,97875.94
2022-08-26T23:39:46.050Z,97866.66
2022-08-26T23:42:31.707Z,97869.31
2022-08-26T23:45:18.545Z,97728.66
2022-08-26T23:48:05.208Z,97823.97
2022-08-26T23:51:09.236Z,97757.59
2022-08-26T23:53:54.845Z,97875.94
2022-08-26T23:56:40.830Z,97866.66
2022-08-26T23:59:26.277Z,97719.69
